BUU Airport (Burlington Muni) Information

FAA: BUU - ICAO: KBUU

BUU Airport Location

State Wisconsin
County Racine
City Burlington
BUU Airport is 1 mile northwest of Burlington, WI.
Latitude 42-41-26.5816N
Longitude 088-18-16.8571W
Elevation 780ft

KBUU Airport METARs

METAR KBUU 201935Z AUTO 26003KT 4SM 22/20 A2971 RMK AO2 T02230196 PWINO
Altimeter 29.71"
Temperature 22.3°C (72.1°F)
Wind 260° at 3KT
Clouds at 0ft
Visibility 4.0mi
Time observed: 2021-06-20T19:35:00Z

BUU Airport Details

Status Operational
Activation June 1963
Ownership Public
Usage Public
Chart CHICAGO
ATC on-site No
Beacon schedule sunset-sunrise
Beacon color clear green

BUU Airport Contacts

Owner CITY OF BURLINGTON
Owner address CITY HALL 300 N PINE, BURLINGTON, WI 53105
Owner phone 262-763-3717
Manager MIKE KNOX
Manager address 1600 COUNTY RD, PARACHUTE, CO 81635
Manager phone 970-285-9542

BUU Airport (Burlington Muni) Radio Frequencies

BUU (Airport) Radio Frequencies

UNICOM 123.05
Common traffic advisory frequency (CTAF) 123.05